Hovedside
METAR-TAF:

METAR-TAF

Lufthavner :

Stavanger, Norge

Stavanger lufthavn

breddegrad: 58-53N, lengdegrad: 005-38E, høyde over havet: 0 m

Gjeldene værobservasjon

Denne rapporten ble laget for 16 minutter siden, klokken 10:20 UTC
Vind 17 kt fra Vest-sørvest
Temperatur 13°C
Luftfuktighet 77%
Trykk 994 hPa
Sikt 10 km eller mer
Få skyer i en høyde av 2000 ft, Bygeskyer.
Spredte skyer i en høyde av 3000 ft
Brutte skyer i en høyde av 6000 ft
regnbyger i nærheten

METAR: ENZV 251020Z 24017KT 9999 VCSH FEW020CB SCT030 BKN060 13/09 Q0994 TEMPO SHRA

Tid: 12:36 (10:36 UTC)


TAF: fraværende

Værobservasjoner og værvarsel for over 4000 flyplasser (METAR- og TAF-rapporter).

Tilgjengelige stasjoner er representert av de røde og gule prikkene på kartet.

Hold musepekeren over prikken for å se navnet på stasjonen.

Klikk så for å se værobservasjoner og -varsler.

For å forandre kartet kan du klikke på den grønne knappen med svart kryss for å zoome inn, på den grønne knappen med strek for å zoome ut, eller på de grønne pilene for å se tilstøtende kart.


METAR-TAF: